ESNN/SDL METAR and TAF weather

Enter ICAO airport designator
Station Type Date Time Source
ESNN METAR 2019/04/25 01:50 UTC NOAA

ESNN 250150Z AUTO VRB01KT 1400 R16/P2000N R34/P2000N NCD M01/M02 Q1024


Station Type Date Time Source
ESNN Decoded METAR 2019/04/25 01:50 UTC NOAA

Sundsvall-Harnosand Flygplats, Sweden (ESNN) 62-32N 017-27E 10M
Apr 24, 2019 - 09:50 PM EDT / 2019.04.25 0150 UTC
Wind: Variable at 1 MPH (1 KT):0
Visibility: less than 1 mile:0
Temperature: 30 F (-1 C)
Dew Point: 28 F (-2 C)
Relative Humidity: 92%
Pressure (altimeter): 30.24 in. Hg (1024 hPa)
ob: ESNN 250150Z AUTO VRB01KT 1400 R16/P2000N R34/P2000N NCD M01/M02 Q1024
cycle: 2

Station Type Date Time Source
ESNN TAF 2016/05/29 09:33 UTC NOAA

TAF TAF ESNN 290830Z 2909/3018 07006KT 9999 SCT045
BECMG 2913/2915 14010KT

Example: see airport list